sensor_id;sensor_type;location;lat;lon;timestamp;P1;durP1;ratioP1;P2;durP2;ratioP2
13733;SDS011;43298;52.560;13.508;2023-04-03T00:00:56;14.05;;;13.45;;
13733;SDS011;43298;52.560;13.508;2023-04-03T00:03:22;13.82;;;13.23;;
13733;SDS011;43298;52.560;13.508;2023-04-03T00:05:48;14.52;;;13.93;;
13733;SDS011;43298;52.560;13.508;2023-04-03T00:08:14;14.18;;;13.57;;
13733;SDS011;43298;52.560;13.508;2023-04-03T00:10:40;13.05;;;12.55;;
13733;SDS011;43298;52.560;13.508;2023-04-03T00:13:06;14.38;;;13.77;;
13733;SDS011;43298;52.560;13.508;2023-04-03T00:15:33;14.70;;;14.10;;
13733;SDS011;43298;52.560;13.508;2023-04-03T00:18:00;13.32;;;12.82;;
13733;SDS011;43298;52.560;13.508;2023-04-03T00:20:27;13.55;;;12.98;;
13733;SDS011;43298;52.560;13.508;2023-04-03T00:22:53;14.13;;;13.52;;
13733;SDS011;43298;52.560;13.508;2023-04-03T00:25:19;14.38;;;13.77;;
13733;SDS011;43298;52.560;13.508;2023-04-03T00:27:45;14.05;;;13.35;;
13733;SDS011;43298;52.560;13.508;2023-04-03T00:30:12;14.23;;;13.63;;
13733;SDS011;43298;52.560;13.508;2023-04-03T00:32:41;13.73;;;13.13;;
13733;SDS011;43298;52.560;13.508;2023-04-03T00:35:07;13.88;;;13.27;;
13733;SDS011;43298;52.560;13.508;2023-04-03T00:37:33;15.20;;;14.48;;
13733;SDS011;43298;52.560;13.508;2023-04-03T00:39:59;14.18;;;13.57;;
13733;SDS011;43298;52.560;13.508;2023-04-03T00:42:26;15.68;;;15.05;;
13733;SDS011;43298;52.560;13.508;2023-04-03T00:47:20;16.95;;;16.25;;
13733;SDS011;43298;52.560;13.508;2023-04-03T00:49:47;17.48;;;16.77;;
13733;SDS011;43298;52.560;13.508;2023-04-03T00:52:16;16.10;;;15.40;;
13733;SDS011;43298;52.560;13.508;2023-04-03T00:54:45;15.15;;;14.55;;
13733;SDS011;43298;52.560;13.508;2023-04-03T00:57:15;15.45;;;14.85;;
13733;SDS011;43298;52.560;13.508;2023-04-03T00:59:51;15.20;;;14.60;;
13733;SDS011;43298;52.560;13.508;2023-04-03T01:02:22;15.40;;;14.80;;
13733;SDS011;43298;52.560;13.508;2023-04-03T01:04:49;15.60;;;15.00;;
13733;SDS011;43298;52.560;13.508;2023-04-03T01:07:22;14.45;;;13.85;;
13733;SDS011;43298;52.560;13.508;2023-04-03T01:09:56;15.50;;;14.90;;
13733;SDS011;43298;52.560;13.508;2023-04-03T01:12:32;16.17;;;15.50;;
13733;SDS011;43298;52.560;13.508;2023-04-03T01:15:05;16.08;;;15.38;;
13733;SDS011;43298;52.560;13.508;2023-04-03T01:17:54;16.92;;;16.20;;
13733;SDS011;43298;52.560;13.508;2023-04-03T01:25:43;18.23;;;17.42;;
13733;SDS011;43298;52.560;13.508;2023-04-03T01:28:13;21.40;;;17.65;;
13733;SDS011;43298;52.560;13.508;2023-04-03T01:33:40;17.58;;;16.88;;
13733;SDS011;43298;52.560;13.508;2023-04-03T01:36:06;16.08;;;15.38;;
13733;SDS011;43298;52.560;13.508;2023-04-03T01:38:33;17.48;;;16.77;;
13733;SDS011;43298;52.560;13.508;2023-04-03T01:40:59;17.88;;;17.15;;
13733;SDS011;43298;52.560;13.508;2023-04-03T01:43:25;18.25;;;17.50;;
13733;SDS011;43298;52.560;13.508;2023-04-03T01:45:51;18.52;;;17.73;;
13733;SDS011;43298;52.560;13.508;2023-04-03T01:48:19;18.85;;;18.05;;
13733;SDS011;43298;52.560;13.508;2023-04-03T01:50:45;18.13;;;17.42;;
13733;SDS011;43298;52.560;13.508;2023-04-03T01:53:12;18.23;;;17.48;;
13733;SDS011;43298;52.560;13.508;2023-04-03T01:55:38;18.17;;;17.42;;
13733;SDS011;43298;52.560;13.508;2023-04-03T01:58:04;18.92;;;17.88;;
13733;SDS011;43298;52.560;13.508;2023-04-03T02:00:30;17.20;;;16.50;;
13733;SDS011;43298;52.560;13.508;2023-04-03T02:02:56;17.92;;;17.23;;
13733;SDS011;43298;52.560;13.508;2023-04-03T02:05:21;18.48;;;17.67;;
13733;SDS011;43298;52.560;13.508;2023-04-03T02:07:47;17.42;;;16.73;;
13733;SDS011;43298;52.560;13.508;2023-04-03T02:10:14;18.25;;;17.50;;
13733;SDS011;43298;52.560;13.508;2023-04-03T02:12:40;19.23;;;18.42;;
13733;SDS011;43298;52.560;13.508;2023-04-03T02:15:05;18.42;;;17.63;;
13733;SDS011;43298;52.560;13.508;2023-04-03T02:17:32;19.55;;;18.75;;
13733;SDS011;43298;52.560;13.508;2023-04-03T02:19:58;20.10;;;19.30;;
13733;SDS011;43298;52.560;13.508;2023-04-03T02:22:23;18.02;;;17.33;;
13733;SDS011;43298;52.560;13.508;2023-04-03T02:24:49;19.85;;;19.05;;
13733;SDS011;43298;52.560;13.508;2023-04-03T02:27:16;17.33;;;16.60;;
13733;SDS011;43298;52.560;13.508;2023-04-03T02:29:42;20.70;;;19.70;;
13733;SDS011;43298;52.560;13.508;2023-04-03T02:32:08;17.73;;;17.00;;
13733;SDS011;43298;52.560;13.508;2023-04-03T02:34:34;18.55;;;17.80;;
13733;SDS011;43298;52.560;13.508;2023-04-03T02:37:00;16.08;;;15.43;;
13733;SDS011;43298;52.560;13.508;2023-04-03T02:39:25;15.77;;;15.13;;
13733;SDS011;43298;52.560;13.508;2023-04-03T02:41:51;16.98;;;16.27;;
13733;SDS011;43298;52.560;13.508;2023-04-03T02:44:17;16.10;;;15.43;;
13733;SDS011;43298;52.560;13.508;2023-04-03T02:46:43;16.58;;;15.88;;
13733;SDS011;43298;52.560;13.508;2023-04-03T02:49:09;16.40;;;15.73;;
13733;SDS011;43298;52.560;13.508;2023-04-03T02:51:35;17.75;;;17.02;;
13733;SDS011;43298;52.560;13.508;2023-04-03T02:54:01;18.75;;;17.98;;
13733;SDS011;43298;52.560;13.508;2023-04-03T02:56:27;17.13;;;16.42;;
13733;SDS011;43298;52.560;13.508;2023-04-03T02:58:53;17.45;;;16.75;;
13733;SDS011;43298;52.560;13.508;2023-04-03T03:01:19;16.90;;;16.20;;
13733;SDS011;43298;52.560;13.508;2023-04-03T03:03:44;16.55;;;15.85;;
13733;SDS011;43298;52.560;13.508;2023-04-03T03:06:11;15.27;;;14.68;;
13733;SDS011;43298;52.560;13.508;2023-04-03T03:08:41;16.92;;;16.23;;
13733;SDS011;43298;52.560;13.508;2023-04-03T03:11:07;16.40;;;15.70;;
13733;SDS011;43298;52.560;13.508;2023-04-03T03:13:34;17.95;;;17.25;;
13733;SDS011;43298;52.560;13.508;2023-04-03T03:16:00;17.13;;;16.42;;
13733;SDS011;43298;52.560;13.508;2023-04-03T03:18:27;17.50;;;16.80;;
13733;SDS011;43298;52.560;13.508;2023-04-03T03:20:54;17.67;;;16.98;;
13733;SDS011;43298;52.560;13.508;2023-04-03T03:23:22;16.17;;;15.48;;
13733;SDS011;43298;52.560;13.508;2023-04-03T03:25:54;17.20;;;16.50;;
13733;SDS011;43298;52.560;13.508;2023-04-03T03:28:21;17.38;;;16.67;;
13733;SDS011;43298;52.560;13.508;2023-04-03T03:30:47;16.42;;;15.73;;
13733;SDS011;43298;52.560;13.508;2023-04-03T03:33:13;16.50;;;15.80;;
13733;SDS011;43298;52.560;13.508;2023-04-03T03:35:39;16.95;;;16.25;;
13733;SDS011;43298;52.560;13.508;2023-04-03T03:38:05;17.17;;;16.48;;
13733;SDS011;43298;52.560;13.508;2023-04-03T03:40:31;17.52;;;16.73;;
13733;SDS011;43298;52.560;13.508;2023-04-03T03:42:56;17.30;;;16.60;;
13733;SDS011;43298;52.560;13.508;2023-04-03T03:45:22;15.00;;;14.40;;
13733;SDS011;43298;52.560;13.508;2023-04-03T03:47:48;17.80;;;17.10;;
13733;SDS011;43298;52.560;13.508;2023-04-03T03:50:14;16.55;;;15.85;;
13733;SDS011;43298;52.560;13.508;2023-04-03T03:52:40;17.48;;;16.73;;
13733;SDS011;43298;52.560;13.508;2023-04-03T03:55:06;16.42;;;15.73;;
13733;SDS011;43298;52.560;13.508;2023-04-03T03:57:32;17.95;;;17.15;;
13733;SDS011;43298;52.560;13.508;2023-04-03T03:59:58;24.20;;;16.70;;
13733;SDS011;43298;52.560;13.508;2023-04-03T04:02:24;17.30;;;16.50;;
13733;SDS011;43298;52.560;13.508;2023-04-03T04:04:50;17.00;;;16.30;;
13733;SDS011;43298;52.560;13.508;2023-04-03T04:07:16;16.55;;;15.85;;
13733;SDS011;43298;52.560;13.508;2023-04-03T04:09:41;17.63;;;16.92;;
13733;SDS011;43298;52.560;13.508;2023-04-03T04:12:07;17.05;;;16.30;;
13733;SDS011;43298;52.560;13.508;2023-04-03T04:14:33;15.88;;;15.25;;
13733;SDS011;43298;52.560;13.508;2023-04-03T04:16:59;15.48;;;14.85;;
13733;SDS011;43298;52.560;13.508;2023-04-03T04:19:27;15.73;;;15.10;;
13733;SDS011;43298;52.560;13.508;2023-04-03T04:21:53;16.83;;;16.13;;
13733;SDS011;43298;52.560;13.508;2023-04-03T04:24:19;17.55;;;16.77;;
13733;SDS011;43298;52.560;13.508;2023-04-03T04:26:45;16.00;;;15.32;;
13733;SDS011;43298;52.560;13.508;2023-04-03T04:29:11;17.00;;;16.30;;
13733;SDS011;43298;52.560;13.508;2023-04-03T04:31:36;17.27;;;16.52;;
13733;SDS011;43298;52.560;13.508;2023-04-03T04:34:02;18.65;;;17.75;;
13733;SDS011;43298;52.560;13.508;2023-04-03T04:36:28;17.38;;;16.67;;
13733;SDS011;43298;52.560;13.508;2023-04-03T04:38:54;16.55;;;15.85;;
13733;SDS011;43298;52.560;13.508;2023-04-03T04:41:20;16.20;;;15.50;;
13733;SDS011;43298;52.560;13.508;2023-04-03T04:43:48;17.75;;;17.05;;
13733;SDS011;43298;52.560;13.508;2023-04-03T04:46:15;17.17;;;16.42;;
13733;SDS011;43298;52.560;13.508;2023-04-03T04:48:41;17.02;;;16.33;;
13733;SDS011;43298;52.560;13.508;2023-04-03T04:51:07;16.38;;;15.68;;
13733;SDS011;43298;52.560;13.508;2023-04-03T04:53:32;17.23;;;16.52;;
13733;SDS011;43298;52.560;13.508;2023-04-03T04:55:58;16.08;;;15.38;;
13733;SDS011;43298;52.560;13.508;2023-04-03T04:58:24;15.85;;;15.23;;
13733;SDS011;43298;52.560;13.508;2023-04-03T05:00:57;16.60;;;15.90;;
13733;SDS011;43298;52.560;13.508;2023-04-03T05:03:25;16.33;;;15.63;;
13733;SDS011;43298;52.560;13.508;2023-04-03T05:05:51;15.50;;;14.88;;
13733;SDS011;43298;52.560;13.508;2023-04-03T05:08:16;15.82;;;15.18;;
13733;SDS011;43298;52.560;13.508;2023-04-03T05:10:42;15.82;;;15.18;;
13733;SDS011;43298;52.560;13.508;2023-04-03T05:13:11;14.98;;;14.38;;
13733;SDS011;43298;52.560;13.508;2023-04-03T05:15:37;16.52;;;15.82;;
13733;SDS011;43298;52.560;13.508;2023-04-03T05:18:03;16.10;;;15.40;;
13733;SDS011;43298;52.560;13.508;2023-04-03T05:20:30;15.50;;;14.90;;
13733;SDS011;43298;52.560;13.508;2023-04-03T05:22:57;15.65;;;15.05;;
13733;SDS011;43298;52.560;13.508;2023-04-03T05:25:22;16.70;;;16.00;;
13733;SDS011;43298;52.560;13.508;2023-04-03T05:27:49;14.98;;;14.35;;
13733;SDS011;43298;52.560;13.508;2023-04-03T05:30:15;15.32;;;14.73;;
13733;SDS011;43298;52.560;13.508;2023-04-03T05:32:41;19.48;;;15.90;;
13733;SDS011;43298;52.560;13.508;2023-04-03T05:35:07;16.20;;;15.50;;
13733;SDS011;43298;52.560;13.508;2023-04-03T05:37:34;16.92;;;16.23;;
13733;SDS011;43298;52.560;13.508;2023-04-03T05:40:00;16.02;;;15.35;;
13733;SDS011;43298;52.560;13.508;2023-04-03T05:42:27;16.30;;;15.60;;
13733;SDS011;43298;52.560;13.508;2023-04-03T05:44:53;17.15;;;16.45;;
13733;SDS011;43298;52.560;13.508;2023-04-03T05:47:18;16.98;;;16.27;;
13733;SDS011;43298;52.560;13.508;2023-04-03T05:49:44;16.15;;;15.48;;
13733;SDS011;43298;52.560;13.508;2023-04-03T05:52:29;17.80;;;17.10;;
13733;SDS011;43298;52.560;13.508;2023-04-03T05:55:03;18.42;;;17.63;;
13733;SDS011;43298;52.560;13.508;2023-04-03T05:57:30;17.25;;;16.55;;
13733;SDS011;43298;52.560;13.508;2023-04-03T05:59:56;15.98;;;15.32;;
13733;SDS011;43298;52.560;13.508;2023-04-03T06:02:22;16.98;;;16.23;;
13733;SDS011;43298;52.560;13.508;2023-04-03T06:04:50;17.38;;;16.67;;
13733;SDS011;43298;52.560;13.508;2023-04-03T06:07:23;16.85;;;16.15;;
13733;SDS011;43298;52.560;13.508;2023-04-03T06:09:53;16.65;;;15.95;;
13733;SDS011;43298;52.560;13.508;2023-04-03T06:12:21;15.90;;;15.25;;
13733;SDS011;43298;52.560;13.508;2023-04-03T06:14:47;15.57;;;14.98;;
13733;SDS011;43298;52.560;13.508;2023-04-03T06:17:16;16.30;;;15.60;;
13733;SDS011;43298;52.560;13.508;2023-04-03T06:19:43;16.10;;;15.43;;
13733;SDS011;43298;52.560;13.508;2023-04-03T06:22:09;16.17;;;15.48;;
13733;SDS011;43298;52.560;13.508;2023-04-03T06:24:36;14.10;;;13.50;;
13733;SDS011;43298;52.560;13.508;2023-04-03T06:27:03;15.07;;;14.48;;
13733;SDS011;43298;52.560;13.508;2023-04-03T06:29:29;13.52;;;12.65;;
13733;SDS011;43298;52.560;13.508;2023-04-03T06:31:55;13.20;;;12.70;;
13733;SDS011;43298;52.560;13.508;2023-04-03T06:34:22;13.63;;;13.05;;
13733;SDS011;43298;52.560;13.508;2023-04-03T06:36:48;14.48;;;13.88;;
13733;SDS011;43298;52.560;13.508;2023-04-03T06:39:18;14.85;;;14.25;;
13733;SDS011;43298;52.560;13.508;2023-04-03T06:41:47;13.27;;;12.75;;
13733;SDS011;43298;52.560;13.508;2023-04-03T06:44:15;12.00;;;11.50;;
13733;SDS011;43298;52.560;13.508;2023-04-03T06:46:41;12.48;;;11.75;;
13733;SDS011;43298;52.560;13.508;2023-04-03T06:49:08;10.68;;;10.27;;
13733;SDS011;43298;52.560;13.508;2023-04-03T06:51:34;11.85;;;11.30;;
13733;SDS011;43298;52.560;13.508;2023-04-03T06:54:02;10.98;;;10.57;;
13733;SDS011;43298;52.560;13.508;2023-04-03T06:56:31;11.73;;;11.23;;
13733;SDS011;43298;52.560;13.508;2023-04-03T06:58:57;12.25;;;11.68;;
13733;SDS011;43298;52.560;13.508;2023-04-03T07:01:24;11.80;;;11.30;;
13733;SDS011;43298;52.560;13.508;2023-04-03T07:03:54;12.45;;;11.85;;
13733;SDS011;43298;52.560;13.508;2023-04-03T07:06:20;12.32;;;11.82;;
13733;SDS011;43298;52.560;13.508;2023-04-03T07:08:47;12.55;;;12.05;;
13733;SDS011;43298;52.560;13.508;2023-04-03T07:11:14;12.10;;;11.60;;
13733;SDS011;43298;52.560;13.508;2023-04-03T07:13:40;12.45;;;11.95;;
13733;SDS011;43298;52.560;13.508;2023-04-03T07:16:07;13.70;;;13.10;;
13733;SDS011;43298;52.560;13.508;2023-04-03T07:18:33;14.02;;;13.40;;
13733;SDS011;43298;52.560;13.508;2023-04-03T07:21:00;12.13;;;11.63;;
13733;SDS011;43298;52.560;13.508;2023-04-03T07:23:26;12.20;;;11.70;;
13733;SDS011;43298;52.560;13.508;2023-04-03T07:25:53;13.40;;;12.80;;
13733;SDS011;43298;52.560;13.508;2023-04-03T07:28:19;15.18;;;14.57;;
13733;SDS011;43298;52.560;13.508;2023-04-03T07:30:54;12.85;;;12.32;;
13733;SDS011;43298;52.560;13.508;2023-04-03T07:33:33;13.77;;;13.18;;
13733;SDS011;43298;52.560;13.508;2023-04-03T07:36:00;14.50;;;13.88;;
13733;SDS011;43298;52.560;13.508;2023-04-03T07:38:27;13.43;;;12.88;;
13733;SDS011;43298;52.560;13.508;2023-04-03T07:40:53;15.85;;;15.20;;
13733;SDS011;43298;52.560;13.508;2023-04-03T07:43:19;14.00;;;13.40;;
13733;SDS011;43298;52.560;13.508;2023-04-03T07:45:46;13.43;;;12.82;;
13733;SDS011;43298;52.560;13.508;2023-04-03T07:48:17;12.43;;;11.93;;
13733;SDS011;43298;52.560;13.508;2023-04-03T07:50:44;15.15;;;14.35;;
13733;SDS011;43298;52.560;13.508;2023-04-03T07:53:10;13.30;;;12.70;;
13733;SDS011;43298;52.560;13.508;2023-04-03T07:55:36;13.75;;;13.15;;
13733;SDS011;43298;52.560;13.508;2023-04-03T07:58:08;12.13;;;11.63;;
13733;SDS011;43298;52.560;13.508;2023-04-03T08:00:40;12.13;;;11.63;;
13733;SDS011;43298;52.560;13.508;2023-04-03T08:03:07;12.23;;;11.73;;
13733;SDS011;43298;52.560;13.508;2023-04-03T08:05:36;12.07;;;11.57;;
13733;SDS011;43298;52.560;13.508;2023-04-03T08:08:04;12.30;;;11.80;;
13733;SDS011;43298;52.560;13.508;2023-04-03T08:10:32;11.82;;;11.32;;
13733;SDS011;43298;52.560;13.508;2023-04-03T08:12:58;10.25;;;9.85;;
13733;SDS011;43298;52.560;13.508;2023-04-03T08:15:25;10.57;;;10.18;;
13733;SDS011;43298;52.560;13.508;2023-04-03T08:17:51;11.50;;;11.00;;
13733;SDS011;43298;52.560;13.508;2023-04-03T08:20:18;11.38;;;10.88;;
13733;SDS011;43298;52.560;13.508;2023-04-03T08:22:44;10.48;;;10.07;;
13733;SDS011;43298;52.560;13.508;2023-04-03T08:25:10;13.02;;;12.35;;
13733;SDS011;43298;52.560;13.508;2023-04-03T08:27:35;11.73;;;11.23;;
13733;SDS011;43298;52.560;13.508;2023-04-03T08:30:02;11.48;;;10.98;;
13733;SDS011;43298;52.560;13.508;2023-04-03T08:32:29;12.25;;;11.75;;
13733;SDS011;43298;52.560;13.508;2023-04-03T08:34:55;11.30;;;10.73;;
13733;SDS011;43298;52.560;13.508;2023-04-03T08:37:21;12.20;;;11.60;;
13733;SDS011;43298;52.560;13.508;2023-04-03T08:39:46;14.13;;;12.68;;
13733;SDS011;43298;52.560;13.508;2023-04-03T08:42:18;12.18;;;11.68;;
13733;SDS011;43298;52.560;13.508;2023-04-03T08:51:04;12.77;;;12.18;;
13733;SDS011;43298;52.560;13.508;2023-04-03T08:53:56;10.63;;;10.23;;
13733;SDS011;43298;52.560;13.508;2023-04-03T08:56:27;13.27;;;12.68;;
13733;SDS011;43298;52.560;13.508;2023-04-03T08:58:57;10.88;;;10.38;;
13733;SDS011;43298;52.560;13.508;2023-04-03T09:01:30;25.63;;;23.92;;
13733;SDS011;43298;52.560;13.508;2023-04-03T09:04:03;12.48;;;11.88;;
13733;SDS011;43298;52.560;13.508;2023-04-03T09:06:42;11.90;;;11.35;;
13733;SDS011;43298;52.560;13.508;2023-04-03T09:09:31;31.30;;;29.67;;
13733;SDS011;43298;52.560;13.508;2023-04-03T09:12:22;15.23;;;14.63;;
13733;SDS011;43298;52.560;13.508;2023-04-03T09:22:50;11.75;;;11.25;;
13733;SDS011;43298;52.560;13.508;2023-04-03T09:25:32;11.73;;;11.23;;
13733;SDS011;43298;52.560;13.508;2023-04-03T09:28:02;11.07;;;10.48;;
13733;SDS011;43298;52.560;13.508;2023-04-03T09:30:34;11.18;;;10.68;;
13733;SDS011;43298;52.560;13.508;2023-04-03T09:33:02;11.00;;;10.40;;
13733;SDS011;43298;52.560;13.508;2023-04-03T09:35:28;11.85;;;11.35;;
13733;SDS011;43298;52.560;13.508;2023-04-03T09:37:58;12.80;;;12.30;;
13733;SDS011;43298;52.560;13.508;2023-04-03T09:40:43;11.68;;;11.18;;
13733;SDS011;43298;52.560;13.508;2023-04-03T09:43:25;11.55;;;11.05;;
13733;SDS011;43298;52.560;13.508;2023-04-03T09:45:54;12.35;;;11.70;;
13733;SDS011;43298;52.560;13.508;2023-04-03T09:48:49;13.32;;;12.73;;
13733;SDS011;43298;52.560;13.508;2023-04-03T09:51:17;16.65;;;15.95;;
13733;SDS011;43298;52.560;13.508;2023-04-03T09:53:44;12.80;;;12.25;;
13733;SDS011;43298;52.560;13.508;2023-04-03T09:58:42;47.70;;;30.92;;
13733;SDS011;43298;52.560;13.508;2023-04-03T10:01:23;22.88;;;20.48;;
13733;SDS011;43298;52.560;13.508;2023-04-03T10:04:03;16.88;;;15.65;;
13733;SDS011;43298;52.560;13.508;2023-04-03T10:06:37;22.45;;;20.50;;
13733;SDS011;43298;52.560;13.508;2023-04-03T10:14:31;16.15;;;14.93;;
13733;SDS011;43298;52.560;13.508;2023-04-03T10:17:18;13.02;;;12.43;;
13733;SDS011;43298;52.560;13.508;2023-04-03T10:31:38;11.30;;;10.82;;
13733;SDS011;43298;52.560;13.508;2023-04-03T10:34:35;12.50;;;12.00;;
13733;SDS011;43298;52.560;13.508;2023-04-03T10:37:21;12.77;;;12.18;;
13733;SDS011;43298;52.560;13.508;2023-04-03T10:39:58;12.40;;;11.90;;
13733;SDS011;43298;52.560;13.508;2023-04-03T10:42:50;11.75;;;11.25;;
13733;SDS011;43298;52.560;13.508;2023-04-03T10:51:08;12.05;;;11.55;;
13733;SDS011;43298;52.560;13.508;2023-04-03T10:54:05;12.88;;;12.38;;
13733;SDS011;43298;52.560;13.508;2023-04-03T10:56:42;13.52;;;12.88;;
13733;SDS011;43298;52.560;13.508;2023-04-03T11:02:07;12.43;;;11.93;;
13733;SDS011;43298;52.560;13.508;2023-04-03T11:05:02;13.02;;;12.52;;
13733;SDS011;43298;52.560;13.508;2023-04-03T11:07:42;13.15;;;12.55;;
13733;SDS011;43298;52.560;13.508;2023-04-03T11:10:23;12.07;;;11.57;;
13733;SDS011;43298;52.560;13.508;2023-04-03T11:13:06;15.65;;;14.95;;
13733;SDS011;43298;52.560;13.508;2023-04-03T11:15:38;15.55;;;14.82;;
13733;SDS011;43298;52.560;13.508;2023-04-03T11:18:06;10.70;;;10.30;;
13733;SDS011;43298;52.560;13.508;2023-04-03T11:20:38;12.70;;;12.20;;
13733;SDS011;43298;52.560;13.508;2023-04-03T11:23:22;11.55;;;11.05;;
13733;SDS011;43298;52.560;13.508;2023-04-03T11:25:54;11.25;;;10.75;;
13733;SDS011;43298;52.560;13.508;2023-04-03T11:28:45;12.07;;;11.52;;
13733;SDS011;43298;52.560;13.508;2023-04-03T11:34:26;10.98;;;10.48;;
13733;SDS011;43298;52.560;13.508;2023-04-03T11:37:01;10.30;;;9.80;;
13733;SDS011;43298;52.560;13.508;2023-04-03T11:39:39;9.73;;;9.32;;
13733;SDS011;43298;52.560;13.508;2023-04-03T11:44:51;12.60;;;12.10;;
13733;SDS011;43298;52.560;13.508;2023-04-03T11:58:18;11.63;;;11.13;;
13733;SDS011;43298;52.560;13.508;2023-04-03T12:00:53;10.95;;;10.45;;
13733;SDS011;43298;52.560;13.508;2023-04-03T12:09:00;11.38;;;10.88;;
13733;SDS011;43298;52.560;13.508;2023-04-03T12:11:28;11.07;;;10.60;;
13733;SDS011;43298;52.560;13.508;2023-04-03T12:16:31;10.85;;;10.35;;
13733;SDS011;43298;52.560;13.508;2023-04-03T12:46:59;13.63;;;12.23;;
13733;SDS011;43298;52.560;13.508;2023-04-03T12:49:43;13.15;;;12.35;;
13733;SDS011;43298;52.560;13.508;2023-04-03T12:55:17;12.30;;;11.80;;
13733;SDS011;43298;52.560;13.508;2023-04-03T12:57:45;12.68;;;12.18;;
13733;SDS011;43298;52.560;13.508;2023-04-03T13:03:03;12.18;;;11.68;;
13733;SDS011;43298;52.560;13.508;2023-04-03T13:05:31;13.75;;;13.18;;
13733;SDS011;43298;52.560;13.508;2023-04-03T13:08:09;13.77;;;13.18;;
13733;SDS011;43298;52.560;13.508;2023-04-03T13:10:43;12.93;;;12.38;;
13733;SDS011;43298;52.560;13.508;2023-04-03T13:13:36;13.40;;;12.50;;
13733;SDS011;43298;52.560;13.508;2023-04-03T13:16:10;11.95;;;11.45;;
13733;SDS011;43298;52.560;13.508;2023-04-03T13:18:38;12.77;;;12.10;;
13733;SDS011;43298;52.560;13.508;2023-04-03T13:23:45;12.10;;;11.60;;
13733;SDS011;43298;52.560;13.508;2023-04-03T13:26:15;11.95;;;11.45;;
13733;SDS011;43298;52.560;13.508;2023-04-03T13:28:45;11.57;;;11.07;;
13733;SDS011;43298;52.560;13.508;2023-04-03T13:33:39;12.45;;;11.95;;
13733;SDS011;43298;52.560;13.508;2023-04-03T13:36:45;12.93;;;12.38;;
13733;SDS011;43298;52.560;13.508;2023-04-03T13:39:26;11.88;;;11.38;;
13733;SDS011;43298;52.560;13.508;2023-04-03T13:42:14;10.60;;;10.18;;
13733;SDS011;43298;52.560;13.508;2023-04-03T13:44:47;14.88;;;14.27;;
13733;SDS011;43298;52.560;13.508;2023-04-03T13:47:16;10.50;;;10.10;;
13733;SDS011;43298;52.560;13.508;2023-04-03T13:50:02;11.93;;;11.43;;
13733;SDS011;43298;52.560;13.508;2023-04-03T13:53:00;11.32;;;10.82;;
13733;SDS011;43298;52.560;13.508;2023-04-03T13:55:36;11.18;;;10.68;;
13733;SDS011;43298;52.560;13.508;2023-04-03T13:58:22;10.10;;;9.70;;
13733;SDS011;43298;52.560;13.508;2023-04-03T14:03:58;11.60;;;11.05;;
13733;SDS011;43298;52.560;13.508;2023-04-03T14:06:26;10.95;;;10.50;;
13733;SDS011;43298;52.560;13.508;2023-04-03T14:08:54;12.98;;;11.88;;
13733;SDS011;43298;52.560;13.508;2023-04-03T14:11:22;11.13;;;10.63;;
13733;SDS011;43298;52.560;13.508;2023-04-03T14:13:55;12.98;;;12.35;;
13733;SDS011;43298;52.560;13.508;2023-04-03T14:16:27;12.77;;;12.23;;
13733;SDS011;43298;52.560;13.508;2023-04-03T14:19:09;12.27;;;11.77;;
13733;SDS011;43298;52.560;13.508;2023-04-03T14:21:45;13.73;;;13.13;;
13733;SDS011;43298;52.560;13.508;2023-04-03T14:24:11;11.80;;;11.30;;
13733;SDS011;43298;52.560;13.508;2023-04-03T14:26:37;12.43;;;11.93;;
13733;SDS011;43298;52.560;13.508;2023-04-03T14:29:03;12.65;;;12.15;;
13733;SDS011;43298;52.560;13.508;2023-04-03T14:31:29;11.98;;;11.48;;
13733;SDS011;43298;52.560;13.508;2023-04-03T14:33:55;13.60;;;13.00;;
13733;SDS011;43298;52.560;13.508;2023-04-03T14:36:22;15.35;;;14.60;;
13733;SDS011;43298;52.560;13.508;2023-04-03T14:38:51;13.68;;;13.07;;
13733;SDS011;43298;52.560;13.508;2023-04-03T14:41:19;12.00;;;11.50;;
13733;SDS011;43298;52.560;13.508;2023-04-03T14:43:47;11.88;;;11.38;;
13733;SDS011;43298;52.560;13.508;2023-04-03T14:46:15;10.98;;;10.48;;
13733;SDS011;43298;52.560;13.508;2023-04-03T14:48:58;10.43;;;10.02;;
13733;SDS011;43298;52.560;13.508;2023-04-03T14:51:24;11.98;;;11.40;;
13733;SDS011;43298;52.560;13.508;2023-04-03T14:53:51;12.15;;;11.48;;
13733;SDS011;43298;52.560;13.508;2023-04-03T14:58:48;11.88;;;11.38;;
13733;SDS011;43298;52.560;13.508;2023-04-03T15:01:18;11.10;;;10.63;;
13733;SDS011;43298;52.560;13.508;2023-04-03T15:03:44;11.95;;;11.45;;
13733;SDS011;43298;52.560;13.508;2023-04-03T15:06:11;10.90;;;10.45;;
13733;SDS011;43298;52.560;13.508;2023-04-03T15:08:38;11.05;;;10.55;;
13733;SDS011;43298;52.560;13.508;2023-04-03T15:11:06;10.45;;;10.05;;
13733;SDS011;43298;52.560;13.508;2023-04-03T15:13:32;10.63;;;10.15;;
13733;SDS011;43298;52.560;13.508;2023-04-03T15:15:58;10.85;;;10.45;;
13733;SDS011;43298;52.560;13.508;2023-04-03T15:18:25;11.57;;;11.07;;
13733;SDS011;43298;52.560;13.508;2023-04-03T15:20:53;11.55;;;11.05;;
13733;SDS011;43298;52.560;13.508;2023-04-03T15:23:19;11.85;;;11.35;;
13733;SDS011;43298;52.560;13.508;2023-04-03T15:25:51;10.88;;;10.38;;
13733;SDS011;43298;52.560;13.508;2023-04-03T15:28:18;10.77;;;10.27;;
13733;SDS011;43298;52.560;13.508;2023-04-03T15:30:55;11.95;;;11.35;;
13733;SDS011;43298;52.560;13.508;2023-04-03T15:33:22;11.73;;;11.23;;
13733;SDS011;43298;52.560;13.508;2023-04-03T15:35:48;12.93;;;12.32;;
13733;SDS011;43298;52.560;13.508;2023-04-03T15:38:14;11.98;;;11.32;;
13733;SDS011;43298;52.560;13.508;2023-04-03T15:40:40;11.38;;;10.88;;
13733;SDS011;43298;52.560;13.508;2023-04-03T15:43:07;10.77;;;10.38;;
13733;SDS011;43298;52.560;13.508;2023-04-03T15:45:33;11.43;;;10.93;;
13733;SDS011;43298;52.560;13.508;2023-04-03T15:48:01;10.65;;;10.23;;
13733;SDS011;43298;52.560;13.508;2023-04-03T15:50:29;10.73;;;10.23;;
13733;SDS011;43298;52.560;13.508;2023-04-03T15:52:56;11.70;;;11.18;;
13733;SDS011;43298;52.560;13.508;2023-04-03T15:55:26;11.48;;;10.98;;
13733;SDS011;43298;52.560;13.508;2023-04-03T15:57:55;11.95;;;11.45;;
13733;SDS011;43298;52.560;13.508;2023-04-03T16:00:21;12.77;;;12.23;;
13733;SDS011;43298;52.560;13.508;2023-04-03T16:02:50;11.95;;;11.45;;
13733;SDS011;43298;52.560;13.508;2023-04-03T16:05:22;11.18;;;10.70;;
13733;SDS011;43298;52.560;13.508;2023-04-03T16:07:48;12.02;;;11.52;;
13733;SDS011;43298;52.560;13.508;2023-04-03T16:10:15;10.52;;;10.13;;
13733;SDS011;43298;52.560;13.508;2023-04-03T16:12:42;11.38;;;10.88;;
13733;SDS011;43298;52.560;13.508;2023-04-03T16:15:08;11.15;;;10.65;;
13733;SDS011;43298;52.560;13.508;2023-04-03T16:17:35;10.48;;;10.05;;
13733;SDS011;43298;52.560;13.508;2023-04-03T16:20:03;11.50;;;10.98;;
13733;SDS011;43298;52.560;13.508;2023-04-03T16:22:31;10.75;;;10.35;;
13733;SDS011;43298;52.560;13.508;2023-04-03T16:24:57;10.98;;;10.48;;